createdAt,value
2023-04-20T00:02:04.093Z,3.13
2023-04-20T00:04:32.271Z,3.17
2023-04-20T00:07:00.404Z,2.13
2023-04-20T00:09:29.202Z,3.28
2023-04-20T00:11:57.438Z,2.83
2023-04-20T00:14:25.570Z,3.03
2023-04-20T00:16:53.688Z,3.13
2023-04-20T00:19:23.333Z,2.40
2023-04-20T00:21:51.481Z,3.00
2023-04-20T00:24:19.592Z,3.17
2023-04-20T00:26:47.674Z,3.42
2023-04-20T00:29:16.004Z,3.63
2023-04-20T00:31:44.297Z,2.75
2023-04-20T00:34:12.444Z,3.05
2023-04-20T00:36:41.937Z,2.63
2023-04-20T00:39:10.540Z,2.60
2023-04-20T00:41:38.703Z,2.63
2023-04-20T00:44:08.041Z,3.00
2023-04-20T00:46:36.250Z,3.20
2023-04-20T00:49:04.545Z,3.03
2023-04-20T00:51:33.046Z,3.50
2023-04-20T00:54:03.071Z,2.72
2023-04-20T00:56:31.230Z,2.88
2023-04-20T00:58:59.478Z,2.55
2023-04-20T01:01:27.808Z,3.90
2023-04-20T01:03:56.243Z,2.95
2023-04-20T01:06:24.439Z,2.67
2023-04-20T01:08:53.450Z,2.85
2023-04-20T01:11:22.929Z,2.88
2023-04-20T01:13:51.076Z,3.20
2023-04-20T01:16:19.240Z,3.42
2023-04-20T01:18:49.910Z,2.60
2023-04-20T01:21:21.827Z,3.00
2023-04-20T01:23:51.818Z,3.03
2023-04-20T01:26:21.423Z,3.17
2023-04-20T01:28:49.530Z,2.63
2023-04-20T01:31:17.897Z,2.97
2023-04-20T01:33:46.113Z,3.35
2023-04-20T01:36:14.525Z,3.40
2023-04-20T01:38:42.737Z,3.83
2023-04-20T01:41:12.686Z,3.03
2023-04-20T01:43:41.562Z,3.28
2023-04-20T01:46:09.710Z,3.20
2023-04-20T01:48:37.914Z,3.63
2023-04-20T01:51:06.086Z,3.50
2023-04-20T01:53:34.261Z,3.25
2023-04-20T01:56:02.448Z,3.85
2023-04-20T01:58:32.136Z,2.85
2023-04-20T02:01:02.492Z,2.67
2023-04-20T02:03:31.064Z,2.80
2023-04-20T02:05:59.466Z,2.95
2023-04-20T02:08:27.689Z,2.90
2023-04-20T02:10:55.802Z,2.55
2023-04-20T02:13:23.970Z,3.05
2023-04-20T02:15:53.843Z,2.55
2023-04-20T02:18:22.725Z,2.70
2023-04-20T02:20:51.083Z,3.40
2023-04-20T02:23:19.245Z,2.30
2023-04-20T02:25:47.310Z,2.70
2023-04-20T02:28:15.436Z,2.40
2023-04-20T02:30:43.572Z,2.80
2023-04-20T02:33:13.225Z,3.00
2023-04-20T02:35:41.341Z,3.40
2023-04-20T02:38:09.476Z,3.05
2023-04-20T02:40:37.587Z,3.35
2023-04-20T02:43:05.996Z,2.40
2023-04-20T02:45:34.291Z,2.97
2023-04-20T02:48:02.543Z,2.70
2023-04-20T02:50:32.120Z,2.65
2023-04-20T02:53:00.228Z,2.65
2023-04-20T02:55:28.622Z,2.10
2023-04-20T02:57:56.787Z,2.90
2023-04-20T03:00:25.152Z,3.00
2023-04-20T03:02:53.517Z,2.55
2023-04-20T03:05:21.924Z,2.85
2023-04-20T03:07:51.461Z,3.08
2023-04-20T03:10:19.892Z,3.00
2023-04-20T03:12:47.944Z,2.95
2023-04-20T03:15:17.106Z,2.78
2023-04-20T03:17:45.248Z,2.45
2023-04-20T03:20:14.840Z,2.80
2023-04-20T03:22:42.959Z,2.85
2023-04-20T03:25:12.566Z,2.53
2023-04-20T03:27:40.878Z,2.53
2023-04-20T03:30:10.428Z,3.00
2023-04-20T03:32:39.374Z,2.90
2023-04-20T03:35:08.741Z,2.90
2023-04-20T03:37:38.045Z,2.83
2023-04-20T03:40:07.363Z,2.70
2023-04-20T03:42:37.250Z,3.00
2023-04-20T03:45:07.433Z,2.67
2023-04-20T03:47:35.686Z,2.88
2023-04-20T03:50:04.305Z,2.47
2023-04-20T03:52:32.420Z,2.65
2023-04-20T03:55:00.616Z,3.10
2023-04-20T03:57:28.726Z,2.55
2023-04-20T03:59:58.250Z,2.72
2023-04-20T04:02:26.626Z,2.40
2023-04-20T04:04:54.846Z,2.72
2023-04-20T04:07:23.048Z,2.97
2023-04-20T04:09:51.187Z,2.83
2023-04-20T04:12:19.361Z,2.42
2023-04-20T04:14:47.663Z,2.65
2023-04-20T04:17:17.270Z,3.13
2023-04-20T04:19:45.755Z,3.03
2023-04-20T04:22:13.820Z,3.00
2023-04-20T04:24:42.114Z,2.38
2023-04-20T04:27:11.272Z,3.08
2023-04-20T04:29:39.476Z,3.28
2023-04-20T04:32:08.115Z,3.08
2023-04-20T04:34:37.772Z,2.55
2023-04-20T04:37:05.978Z,2.72
2023-04-20T04:39:34.153Z,2.60
2023-04-20T04:42:04.322Z,2.60
2023-04-20T04:44:33.334Z,3.45
2023-04-20T04:47:03.342Z,3.50
2023-04-20T04:49:32.131Z,3.25
2023-04-20T04:52:01.672Z,3.28
2023-04-20T04:54:29.834Z,3.10
2023-04-20T04:56:58.338Z,2.72
2023-04-20T04:59:26.506Z,2.63
2023-04-20T05:01:54.803Z,3.08
2023-04-20T05:04:23.138Z,3.20
2023-04-20T05:06:51.512Z,2.95
2023-04-20T05:09:21.102Z,3.55
2023-04-20T05:11:49.487Z,3.50
2023-04-20T05:14:17.662Z,2.58
2023-04-20T05:16:45.869Z,3.60
2023-04-20T05:19:14.051Z,2.80
2023-04-20T05:21:42.239Z,3.50
2023-04-20T05:24:10.464Z,3.22
2023-04-20T05:26:40.144Z,2.65
2023-04-20T05:29:08.268Z,2.92
2023-04-20T05:31:36.732Z,2.50
2023-04-20T05:34:04.978Z,2.08
2023-04-20T05:36:33.628Z,3.47
2023-04-20T05:39:01.770Z,3.13
2023-04-20T05:41:30.075Z,2.45
2023-04-20T05:44:00.054Z,3.33
2023-04-20T05:46:29.381Z,3.42
2023-04-20T05:48:57.710Z,2.08
2023-04-20T05:51:29.112Z,2.90
2023-04-20T05:53:57.292Z,3.28
2023-04-20T05:56:25.813Z,3.67
2023-04-20T05:58:54.362Z,3.60
2023-04-20T06:01:24.095Z,3.40
2023-04-20T06:03:52.476Z,2.83
2023-04-20T06:06:20.898Z,2.92
2023-04-20T06:08:50.947Z,3.90
2023-04-20T06:11:19.244Z,2.97
2023-04-20T06:13:47.654Z,4.18
2023-04-20T06:16:15.925Z,3.47
2023-04-20T06:18:45.465Z,2.28
2023-04-20T06:21:13.998Z,2.50
2023-04-20T06:23:42.510Z,2.45
2023-04-20T06:26:10.697Z,3.00
2023-04-20T06:28:39.393Z,4.30
2023-04-20T06:31:07.792Z,3.58
2023-04-20T06:33:36.414Z,4.25
2023-04-20T06:36:08.196Z,3.00
2023-04-20T06:38:36.336Z,3.72
2023-04-20T06:41:04.875Z,4.78
2023-04-20T06:43:33.158Z,3.47
2023-04-20T06:46:01.604Z,3.35
2023-04-20T06:48:32.803Z,4.47
2023-04-20T06:51:01.554Z,4.57
2023-04-20T06:53:31.133Z,3.65
2023-04-20T06:55:59.246Z,4.07
2023-04-20T06:58:27.441Z,4.05
2023-04-20T07:00:55.601Z,3.80
2023-04-20T07:03:24.346Z,3.30
2023-04-20T07:05:52.674Z,4.00
2023-04-20T07:08:22.130Z,3.80
2023-04-20T07:10:51.637Z,4.18
2023-04-20T07:13:19.775Z,4.43
2023-04-20T07:15:47.992Z,3.50
2023-04-20T07:18:16.168Z,4.45
2023-04-20T07:20:44.599Z,3.72
2023-04-20T07:23:12.804Z,3.80
2023-04-20T07:25:41.005Z,3.70
2023-04-20T07:28:10.583Z,3.95
2023-04-20T07:30:38.773Z,3.97
2023-04-20T07:33:07.490Z,4.00
2023-04-20T07:35:35.775Z,3.80
2023-04-20T07:38:04.015Z,4.60
2023-04-20T07:40:32.165Z,3.85
2023-04-20T07:43:00.294Z,3.53
2023-04-20T07:45:29.896Z,3.92
2023-04-20T07:48:01.423Z,3.65
2023-04-20T07:50:29.969Z,5.13
2023-04-20T07:52:58.263Z,4.18
2023-04-20T07:55:26.413Z,5.30
2023-04-20T07:57:54.586Z,4.78
2023-04-20T08:00:23.023Z,4.65
2023-04-20T08:02:52.613Z,4.82
2023-04-20T08:05:21.332Z,4.50
2023-04-20T08:07:49.687Z,5.03
2023-04-20T08:10:17.925Z,4.50
2023-04-20T08:12:47.139Z,3.88
2023-04-20T08:15:15.500Z,4.07
2023-04-20T08:17:43.785Z,3.75
2023-04-20T08:20:13.718Z,5.07
2023-04-20T08:22:41.925Z,4.07
2023-04-20T08:25:10.463Z,3.88
2023-04-20T08:27:38.803Z,3.97
2023-04-20T08:30:08.759Z,4.80
2023-04-20T08:32:36.995Z,4.43
2023-04-20T08:35:08.824Z,2.45
2023-04-20T08:37:41.935Z,3.97
2023-04-20T08:40:12.084Z,3.97
2023-04-20T08:42:40.269Z,4.82
2023-04-20T08:45:09.168Z,5.15
2023-04-20T08:47:38.069Z,4.72
2023-04-20T08:50:07.796Z,4.68
2023-04-20T08:52:38.803Z,5.00
2023-04-20T08:55:09.667Z,4.88
2023-04-20T08:57:37.812Z,4.65
2023-04-20T09:00:12.209Z,4.15
2023-04-20T09:02:51.561Z,4.78
2023-04-20T09:05:27.840Z,3.35
2023-04-20T09:07:57.409Z,4.32
2023-04-20T09:10:28.209Z,3.53
2023-04-20T09:12:56.482Z,3.28
2023-04-20T09:15:29.024Z,4.18
2023-04-20T09:17:57.323Z,3.80
2023-04-20T09:20:30.137Z,4.68
2023-04-20T09:22:58.473Z,3.80
2023-04-20T09:25:29.165Z,3.67
2023-04-20T09:27:59.056Z,3.60
2023-04-20T09:30:27.469Z,3.10
2023-04-20T09:33:05.622Z,3.72
2023-04-20T09:35:33.812Z,4.30
2023-04-20T09:38:02.094Z,4.00
2023-04-20T09:40:32.030Z,4.53
2023-04-20T09:43:01.252Z,4.30
2023-04-20T09:45:30.394Z,4.28
2023-04-20T09:47:59.504Z,4.30
2023-04-20T09:50:38.159Z,3.85
2023-04-20T09:53:11.090Z,3.70
2023-04-20T09:55:40.918Z,2.75
2023-04-20T09:58:09.467Z,2.45
2023-04-20T10:00:37.911Z,3.70
2023-04-20T10:03:09.056Z,2.53
2023-04-20T10:05:39.814Z,3.20
2023-04-20T10:08:08.388Z,2.90
2023-04-20T10:10:47.982Z,3.58
2023-04-20T10:13:19.552Z,3.50
2023-04-20T10:15:48.488Z,3.13
2023-04-20T10:18:18.762Z,3.40
2023-04-20T10:20:47.580Z,3.28
2023-04-20T10:23:16.580Z,2.72
2023-04-20T10:25:47.475Z,3.03
2023-04-20T10:28:17.734Z,3.65
2023-04-20T10:30:52.431Z,3.58
2023-04-20T10:33:22.821Z,3.45
2023-04-20T10:35:52.172Z,3.50
2023-04-20T10:38:30.316Z,3.88
2023-04-20T10:40:58.735Z,3.10
2023-04-20T10:43:28.533Z,2.95
2023-04-20T10:45:57.271Z,3.65
2023-04-20T10:48:25.778Z,3.28
2023-04-20T10:50:54.230Z,3.20
2023-04-20T10:53:23.516Z,3.83
2023-04-20T10:56:00.123Z,3.30
2023-04-20T10:58:29.937Z,3.67
2023-04-20T11:01:01.937Z,3.28
2023-04-20T11:03:31.232Z,3.70
2023-04-20T11:06:01.609Z,2.88
2023-04-20T11:08:40.166Z,3.55
2023-04-20T11:11:19.428Z,3.60
2023-04-20T11:13:49.540Z,3.20
2023-04-20T11:16:19.697Z,3.92
2023-04-20T11:18:53.561Z,4.28
2023-04-20T11:21:22.315Z,3.72
2023-04-20T11:23:51.114Z,4.22
2023-04-20T11:26:19.525Z,4.32
2023-04-20T11:28:56.700Z,4.25
2023-04-20T11:31:26.848Z,4.07
2023-04-20T11:33:55.046Z,3.92
2023-04-20T11:36:24.129Z,3.58
2023-04-20T11:38:52.522Z,3.53
2023-04-20T11:41:21.701Z,4.03
2023-04-20T11:43:50.566Z,3.97
2023-04-20T11:46:21.357Z,3.35
2023-04-20T11:48:50.260Z,3.47
2023-04-20T11:51:18.683Z,4.20
2023-04-20T11:53:47.645Z,3.88
2023-04-20T11:56:16.631Z,3.47
2023-04-20T11:58:44.997Z,3.78
2023-04-20T12:01:14.249Z,4.38
2023-04-20T12:03:47.109Z,4.03
2023-04-20T12:06:16.418Z,3.65
2023-04-20T12:08:44.852Z,3.00
2023-04-20T12:11:13.416Z,3.85
2023-04-20T12:13:41.863Z,4.50
2023-04-20T12:16:10.678Z,4.72
2023-04-20T12:18:39.636Z,4.03
2023-04-20T12:21:09.524Z,3.40
2023-04-20T12:23:37.921Z,4.07
2023-04-20T12:26:06.704Z,4.30
2023-04-20T12:28:35.043Z,4.47
2023-04-20T12:31:03.677Z,3.63
2023-04-20T12:33:32.120Z,5.13
2023-04-20T12:36:00.602Z,4.80
2023-04-20T12:38:30.124Z,4.15
2023-04-20T12:40:58.273Z,3.88
2023-04-20T12:43:26.797Z,4.53
2023-04-20T12:45:55.041Z,2.88
2023-04-20T12:48:23.233Z,2.78
2023-04-20T12:50:52.109Z,3.55
2023-04-20T12:53:20.268Z,2.47
2023-04-20T12:55:54.994Z,3.50
2023-04-20T12:58:28.780Z,2.72
2023-04-20T13:00:57.039Z,4.78
2023-04-20T13:03:25.541Z,4.07
2023-04-20T13:05:53.807Z,4.80
2023-04-20T13:08:22.081Z,5.07
2023-04-20T13:10:51.600Z,4.28
2023-04-20T13:13:19.878Z,2.53
2023-04-20T13:15:48.109Z,2.38
2023-04-20T13:18:16.428Z,3.35
2023-04-20T13:20:44.594Z,4.30
2023-04-20T13:23:12.864Z,3.58
2023-04-20T13:25:41.290Z,3.50
2023-04-20T13:28:12.597Z,3.50
2023-04-20T13:30:42.357Z,4.47
2023-04-20T13:33:10.544Z,3.90
2023-04-20T13:35:38.894Z,4.00
2023-04-20T13:38:07.135Z,3.20
2023-04-20T13:40:37.954Z,5.05
2023-04-20T13:43:06.409Z,5.90
2023-04-20T13:45:36.009Z,4.93
2023-04-20T13:48:04.503Z,5.75
2023-04-20T13:50:33.034Z,4.40
2023-04-20T13:53:03.177Z,5.38
2023-04-20T13:55:32.832Z,4.35
2023-04-20T13:58:01.291Z,4.00
2023-04-20T14:00:29.815Z,3.22
2023-04-20T14:02:59.875Z,4.20
2023-04-20T14:05:28.398Z,4.20
2023-04-20T14:07:56.682Z,4.32
2023-04-20T14:10:24.843Z,4.68
2023-04-20T14:12:52.956Z,4.97
2023-04-20T14:15:21.209Z,3.95
2023-04-20T14:17:51.026Z,4.05
2023-04-20T14:20:22.069Z,3.58
2023-04-20T14:22:50.206Z,2.45
2023-04-20T14:25:18.496Z,2.88
2023-04-20T14:27:46.714Z,2.35
2023-04-20T14:30:16.143Z,2.35
2023-04-20T14:32:55.304Z,2.08
2023-04-20T14:35:26.112Z,2.17
2023-04-20T14:37:54.306Z,2.08
2023-04-20T14:40:22.859Z,2.60
2023-04-20T14:42:50.998Z,2.10
2023-04-20T14:45:19.254Z,2.15
2023-04-20T14:47:47.427Z,2.60
2023-04-20T14:50:15.570Z,2.45
2023-04-20T14:52:45.150Z,2.70
2023-04-20T14:55:13.330Z,2.88
2023-04-20T14:57:41.459Z,3.20
2023-04-20T15:00:12.031Z,3.35
2023-04-20T15:02:41.101Z,3.30
2023-04-20T15:05:11.160Z,2.78
2023-04-20T15:07:39.603Z,1.58
2023-04-20T15:10:09.521Z,3.40
2023-04-20T15:12:37.699Z,3.10
2023-04-20T15:15:06.783Z,3.45
2023-04-20T15:17:35.015Z,3.10
2023-04-20T15:20:03.596Z,2.90
2023-04-20T15:22:32.024Z,3.00
2023-04-20T15:25:00.187Z,3.50
2023-04-20T15:27:29.871Z,2.72
2023-04-20T15:29:59.085Z,4.03
2023-04-20T15:32:27.698Z,3.30
2023-04-20T15:34:55.872Z,3.20
2023-04-20T15:37:24.038Z,2.33
2023-04-20T15:39:52.507Z,2.35
2023-04-20T15:42:20.748Z,2.97
2023-04-20T15:44:50.280Z,2.85
2023-04-20T15:47:18.472Z,2.45
2023-04-20T15:49:46.648Z,2.50
2023-04-20T15:52:14.852Z,2.60
2023-04-20T15:54:43.908Z,2.67
2023-04-20T15:57:12.090Z,2.40
2023-04-20T15:59:40.174Z,3.33
2023-04-20T16:02:09.805Z,4.03
2023-04-20T16:04:38.176Z,2.75
2023-04-20T16:07:06.428Z,2.70
2023-04-20T16:09:34.597Z,3.70
2023-04-20T16:12:05.705Z,3.45
2023-04-20T16:14:33.874Z,3.67
2023-04-20T16:17:03.261Z,2.72
2023-04-20T16:19:34.421Z,4.03
2023-04-20T16:22:02.603Z,3.10
2023-04-20T16:24:30.877Z,3.63
2023-04-20T16:27:01.537Z,3.30
2023-04-20T16:29:30.120Z,4.10
2023-04-20T16:31:58.402Z,4.55
2023-04-20T16:34:26.635Z,3.50
2023-04-20T16:36:56.225Z,3.95
2023-04-20T16:39:24.358Z,3.97
2023-04-20T16:41:52.582Z,3.38
2023-04-20T16:44:21.090Z,3.67
2023-04-20T16:46:50.762Z,3.92
2023-04-20T16:49:19.052Z,3.42
2023-04-20T16:51:47.667Z,2.83
2023-04-20T16:54:17.491Z,3.45
2023-04-20T16:56:45.946Z,3.13
2023-04-20T16:59:14.106Z,3.33
2023-04-20T17:01:42.505Z,3.17
2023-04-20T17:04:10.856Z,3.88
2023-04-20T17:06:39.093Z,3.70
2023-04-20T17:09:07.504Z,4.50
2023-04-20T17:11:38.149Z,3.13
2023-04-20T17:14:06.306Z,3.60
2023-04-20T17:16:34.533Z,3.40
2023-04-20T17:19:04.495Z,3.05
2023-04-20T17:21:32.669Z,4.20
2023-04-20T17:24:00.993Z,4.25
2023-04-20T17:26:29.223Z,4.13
2023-04-20T17:28:58.814Z,3.90
2023-04-20T17:31:27.080Z,3.70
2023-04-20T17:33:55.849Z,3.03
2023-04-20T17:36:24.013Z,3.80
2023-04-20T17:38:52.236Z,3.88
2023-04-20T17:41:20.332Z,4.93
2023-04-20T17:43:48.688Z,3.95
2023-04-20T17:46:18.433Z,3.38
2023-04-20T17:48:46.655Z,3.70
2023-04-20T17:51:14.992Z,4.10
2023-04-20T17:53:43.167Z,3.53
2023-04-20T17:56:11.911Z,3.20
2023-04-20T17:58:40.078Z,2.95
2023-04-20T18:01:08.224Z,3.40
2023-04-20T18:03:37.874Z,3.20
2023-04-20T18:06:06.255Z,2.67
2023-04-20T18:08:34.604Z,3.22
2023-04-20T18:11:03.217Z,3.05
2023-04-20T18:13:31.320Z,2.97
2023-04-20T18:15:59.874Z,2.65
2023-04-20T18:18:28.084Z,3.17
2023-04-20T18:20:57.565Z,3.42
2023-04-20T18:23:25.868Z,3.03
2023-04-20T18:25:54.089Z,3.08
2023-04-20T18:28:22.247Z,2.92
2023-04-20T18:30:50.415Z,2.92
2023-04-20T18:33:18.576Z,3.40
2023-04-20T18:35:47.188Z,3.28
2023-04-20T18:38:16.710Z,3.10
2023-04-20T18:40:44.815Z,2.80
2023-04-20T18:43:13.041Z,2.85
2023-04-20T18:45:41.289Z,3.03
2023-04-20T18:48:09.494Z,3.80
2023-04-20T18:50:37.661Z,2.88
2023-04-20T18:53:06.211Z,3.03
2023-04-20T18:55:36.011Z,3.30
2023-04-20T18:58:04.171Z,2.88
2023-04-20T19:00:32.417Z,3.63
2023-04-20T19:03:00.781Z,3.10
2023-04-20T19:05:30.225Z,3.47
2023-04-20T19:07:58.401Z,3.15
2023-04-20T19:10:26.684Z,3.83
2023-04-20T19:12:56.927Z,3.00
2023-04-20T19:15:27.292Z,3.20
2023-04-20T19:17:56.637Z,4.00
2023-04-20T19:20:25.376Z,3.67
2023-04-20T19:22:53.680Z,2.75
2023-04-20T19:25:22.023Z,4.13
2023-04-20T19:27:50.222Z,5.13
2023-04-20T19:30:19.948Z,4.20
2023-04-20T19:32:48.201Z,4.35
2023-04-20T19:35:16.372Z,3.30
2023-04-20T19:37:44.858Z,5.00
2023-04-20T19:40:13.609Z,5.60
2023-04-20T19:42:42.469Z,3.80
2023-04-20T19:45:10.984Z,4.57
2023-04-20T19:47:40.567Z,4.55
2023-04-20T19:50:09.247Z,4.97
2023-04-20T19:52:37.393Z,5.85
2023-04-20T19:55:06.931Z,4.93
2023-04-20T19:57:35.402Z,6.13
2023-04-20T20:00:04.360Z,5.60
2023-04-20T20:02:32.740Z,5.03
2023-04-20T20:05:02.356Z,6.70
2023-04-20T20:07:30.535Z,5.72
2023-04-20T20:09:58.790Z,5.70
2023-04-20T20:12:27.197Z,5.10
2023-04-20T20:14:55.336Z,7.63
2023-04-20T20:17:23.900Z,6.10
2023-04-20T20:19:53.719Z,5.50
2023-04-20T20:22:24.666Z,6.28
2023-04-20T20:24:54.504Z,6.45
2023-04-20T20:27:22.727Z,6.00
2023-04-20T20:29:51.233Z,6.45
2023-04-20T20:32:22.153Z,6.78
2023-04-20T20:34:50.414Z,7.25
2023-04-20T20:37:18.557Z,6.45
2023-04-20T20:39:48.059Z,8.18
2023-04-20T20:42:16.480Z,5.55
2023-04-20T20:44:44.753Z,6.15
2023-04-20T20:47:12.923Z,6.60
2023-04-20T20:49:41.096Z,7.00
2023-04-20T20:52:09.342Z,6.65
2023-04-20T20:54:37.545Z,5.72
2023-04-20T20:57:07.062Z,7.47
2023-04-20T20:59:35.325Z,4.90
2023-04-20T21:02:03.757Z,6.93
2023-04-20T21:04:32.077Z,6.88
2023-04-20T21:07:00.280Z,8.70
2023-04-20T21:09:28.348Z,8.77
2023-04-20T21:11:57.623Z,7.53
2023-04-20T21:14:27.189Z,7.03
2023-04-20T21:16:55.393Z,8.73
2023-04-20T21:19:23.749Z,8.00
2023-04-20T21:21:51.944Z,6.82
2023-04-20T21:24:20.624Z,6.85
2023-04-20T21:26:48.757Z,7.93
2023-04-20T21:29:17.201Z,7.93
2023-04-20T21:31:46.944Z,8.82
2023-04-20T21:34:15.181Z,8.10
2023-04-20T21:36:43.409Z,7.13
2023-04-20T21:39:11.735Z,6.32
2023-04-20T21:41:39.944Z,7.75
2023-04-20T21:44:08.054Z,7.10
2023-04-20T21:46:36.371Z,7.47
2023-04-20T21:49:05.964Z,8.88
2023-04-20T21:51:34.173Z,6.80
2023-04-20T21:54:02.225Z,5.40
2023-04-20T21:56:30.636Z,5.55
2023-04-20T21:58:58.781Z,6.43
2023-04-20T22:01:27.011Z,6.60
2023-04-20T22:03:56.144Z,5.82
2023-04-20T22:06:25.806Z,6.53
2023-04-20T22:08:53.990Z,5.30
2023-04-20T22:11:22.247Z,6.60
2023-04-20T22:13:50.401Z,8.10
2023-04-20T22:16:21.223Z,7.75
2023-04-20T22:18:49.879Z,5.63
2023-04-20T22:21:18.054Z,7.72
2023-04-20T22:23:47.538Z,5.18
2023-04-20T22:26:16.129Z,6.30
2023-04-20T22:28:44.274Z,5.13
2023-04-20T22:31:12.517Z,5.47
2023-04-20T22:33:40.690Z,6.50
2023-04-20T22:36:10.116Z,5.95
2023-04-20T22:38:38.873Z,5.88
2023-04-20T22:41:08.360Z,7.45
2023-04-20T22:43:36.519Z,7.10
2023-04-20T22:46:04.656Z,7.22
2023-04-20T22:48:32.918Z,7.65
2023-04-20T22:51:03.762Z,6.47
2023-04-20T22:53:31.949Z,7.15
2023-04-20T22:56:06.704Z,8.60
2023-04-20T22:58:36.503Z,7.97
2023-04-20T23:01:04.964Z,5.90
2023-04-20T23:03:34.372Z,7.40
2023-04-20T23:06:03.063Z,8.18
2023-04-20T23:08:33.553Z,5.18
2023-04-20T23:11:01.989Z,8.45
2023-04-20T23:13:31.334Z,7.10
2023-04-20T23:16:00.869Z,7.05
2023-04-20T23:18:29.038Z,7.60
2023-04-20T23:20:57.392Z,6.53
2023-04-20T23:23:25.912Z,5.43
2023-04-20T23:25:54.396Z,8.38
2023-04-20T23:28:22.871Z,5.88
2023-04-20T23:30:51.373Z,7.35
2023-04-20T23:33:21.327Z,7.63
2023-04-20T23:35:49.756Z,6.35
2023-04-20T23:38:18.209Z,7.82
2023-04-20T23:40:46.655Z,8.00
2023-04-20T23:43:15.084Z,8.98
2023-04-20T23:45:43.558Z,3.95
2023-04-20T23:48:11.985Z,7.82
2023-04-20T23:50:41.744Z,8.82
2023-04-20T23:53:10.306Z,8.32
2023-04-20T23:55:38.690Z,8.15
2023-04-20T23:58:07.120Z,8.82
